Time;durP1;ratioP1;P1;durP2;ratioP2;P2;SDS_P1;SDS_P2;PMS_P1;PMS_P2;Temp;Humidity;BMP_temperature;BMP_pressure;BME280_temperature;BME280_humidity;BME280_pressure;Samples;Min_cycle;Max_cycle;Signal;HPM_P1;HPM_P2
2023/12/10 00:01:14;;;;;;;26.13;5.65;;;;;;;7.96;100.00;99617.06;6306004;22;20136;-77
2023/12/10 00:03:39;;;;;;;23.08;5.35;;;;;;;7.98;100.00;99617.66;6306122;22;20011;-76
2023/12/10 00:06:05;;;;;;;19.25;5.40;;;;;;;8.04;100.00;99614.06;6306150;22;20011;-78
2023/12/10 00:08:31;;;;;;;20.40;5.82;;;;;;;8.09;100.00;99590.25;6278411;22;20003;-79
2023/12/10 00:10:56;;;;;;;23.60;5.65;;;;;;;8.08;100.00;99612.56;6278348;22;20010;-78
2023/12/10 00:13:21;;;;;;;27.75;6.03;;;;;;;8.10;100.00;99602.53;6306128;22;19999;-77
2023/12/10 00:15:47;;;;;;;32.08;5.40;;;;;;;8.10;100.00;99626.50;6305965;22;20007;-77
2023/12/10 00:18:12;;;;;;;26.38;5.10;;;;;;;8.08;100.00;99593.94;6305640;22;20006;-77
2023/12/10 00:20:37;;;;;;;27.70;6.70;;;;;;;8.23;100.00;99612.97;6278217;22;20018;-78
2023/12/10 00:23:03;;;;;;;25.70;5.53;;;;;;;8.21;100.00;99631.03;6278646;22;19999;-76
2023/12/10 00:25:31;;;;;;;26.05;5.25;;;;;;;8.19;100.00;99622.47;6278492;22;20048;-76
2023/12/10 00:27:57;;;;;;;21.10;5.88;;;;;;;8.24;100.00;99640.41;6305935;22;20310;-77
2023/12/10 00:30:23;;;;;;;24.13;6.30;;;;;;;8.22;100.00;99640.63;6278468;22;20378;-76
2023/12/10 00:32:51;;;;;;;21.85;5.22;;;;;;;8.20;100.00;99634.72;6305785;22;20003;-77
2023/12/10 00:35:16;;;;;;;26.17;6.47;;;;;;;8.34;100.00;99652.16;6305731;22;20310;-78
2023/12/10 00:37:42;;;;;;;21.10;6.35;;;;;;;8.29;100.00;99641.34;6278248;22;20029;-75
2023/12/10 00:40:09;;;;;;;21.95;4.78;;;;;;;8.28;100.00;99652.22;6277924;22;20061;-75
2023/12/10 00:42:34;;;;;;;28.10;7.13;;;;;;;8.33;100.00;99650.53;6277780;22;19999;-76
2023/12/10 00:44:59;;;;;;;20.83;4.25;;;;;;;8.27;100.00;99638.09;6305636;22;20012;-77
2023/12/10 00:47:25;;;;;;;25.15;5.13;;;;;;;8.17;100.00;99651.16;6304453;22;20003;-76
2023/12/10 00:49:50;;;;;;;17.75;5.35;;;;;;;8.19;100.00;99656.28;6277652;22;20011;-76
2023/12/10 00:52:16;;;;;;;28.40;5.63;;;;;;;8.19;100.00;99643.75;6305027;22;20003;-76
2023/12/10 00:54:41;;;;;;;14.00;4.57;;;;;;;8.17;100.00;99661.00;6305124;22;20074;-78
2023/12/10 00:57:06;;;;;;;21.85;5.15;;;;;;;8.19;100.00;99665.06;6305252;22;20471;-76
2023/12/10 00:59:32;;;;;;;18.77;4.72;;;;;;;8.18;100.00;99646.66;6305298;22;20010;-78
2023/12/10 01:01:57;;;;;;;14.70;4.07;;;;;;;8.19;100.00;99675.72;6277595;22;20095;-76
2023/12/10 01:04:24;;;;;;;19.30;4.30;;;;;;;8.13;100.00;99676.63;6277743;22;20104;-77
2023/12/10 01:06:50;;;;;;;17.83;4.15;;;;;;;8.10;100.00;99690.41;6304860;22;20045;-75
2023/12/10 01:09:16;;;;;;;16.52;4.57;;;;;;;8.05;100.00;99676.94;6304867;22;20478;-76
2023/12/10 01:11:41;;;;;;;20.50;6.03;;;;;;;8.07;100.00;99683.66;6305496;22;20007;-78
2023/12/10 01:14:07;;;;;;;22.38;6.47;;;;;;;8.10;100.00;99655.78;6277740;22;20003;-76
2023/12/10 01:16:33;;;;;;;16.17;4.95;;;;;;;8.05;100.00;99668.94;6305011;22;20133;-77
2023/12/10 01:18:58;;;;;;;22.92;5.30;;;;;;;7.97;100.00;99663.94;6304559;22;20156;-77
2023/12/10 01:21:23;;;;;;;17.88;5.15;;;;;;;8.01;100.00;99684.56;6304751;22;20007;-77
2023/12/10 01:23:54;;;;;;;19.63;4.82;;;;;;;7.93;100.00;99670.75;6304854;22;20091;-77
2023/12/10 01:26:20;;;;;;;15.98;5.10;;;;;;;7.99;100.00;99675.19;6277337;22;20452;-77
2023/12/10 01:28:46;;;;;;;18.17;5.40;;;;;;;7.94;100.00;99670.53;6277640;22;20448;-77
2023/12/10 01:31:11;;;;;;;20.70;4.88;;;;;;;7.86;100.00;99686.81;6304954;22;20004;-77
2023/12/10 01:33:36;;;;;;;21.40;4.85;;;;;;;7.86;100.00;99688.69;6304698;22;20014;-77
2023/12/10 01:36:02;;;;;;;22.58;5.10;;;;;;;7.91;100.00;99688.81;6304813;22;20015;-77
2023/12/10 01:38:27;;;;;;;27.85;5.20;;;;;;;7.81;100.00;99697.34;6304962;22;20481;-79
2023/12/10 01:40:53;;;;;;;16.98;4.68;;;;;;;7.88;100.00;99723.84;6304928;22;20007;-77
2023/12/10 01:43:18;;;;;;;22.88;6.78;;;;;;;7.84;100.00;99733.31;6277377;22;20013;-77
2023/12/10 01:45:54;;;;;;;22.23;4.63;;;;;;;7.67;100.00;99702.00;6304808;22;20417;-77
2023/12/10 01:48:21;;;;;;;23.50;5.22;;;;;;;7.69;100.00;99707.91;6277365;22;20060;-77
2023/12/10 01:50:47;;;;;;;15.77;5.40;;;;;;;7.58;100.00;99719.28;6277185;22;20308;-78
2023/12/10 01:53:14;;;;;;;22.13;5.20;;;;;;;7.61;100.00;99718.03;6304621;22;20060;-79
2023/12/10 01:55:41;;;;;;;21.88;4.15;;;;;;;7.67;100.00;99725.13;6304657;22;20413;-80
2023/12/10 01:58:07;;;;;;;25.45;5.05;;;;;;;7.58;100.00;99732.59;6305132;22;20329;-80
2023/12/10 02:00:33;;;;;;;24.20;4.97;;;;;;;7.62;100.00;99712.50;6306144;22;20007;-78
2023/12/10 02:03:05;;;;;;;21.48;5.10;;;;;;;7.65;100.00;99732.50;6278826;22;20022;-79
2023/12/10 02:05:31;;;;;;;23.25;4.50;;;;;;;7.52;100.00;99712.22;6306107;22;20007;-79
2023/12/10 02:07:57;;;;;;;21.92;4.75;;;;;;;7.49;100.00;99733.09;6278566;22;20523;-79
2023/12/10 02:10:22;;;;;;;18.73;4.30;;;;;;;7.50;100.00;99724.06;6306079;22;20003;-78
2023/12/10 02:12:48;;;;;;;21.52;5.32;;;;;;;7.37;100.00;99738.34;6306145;22;20082;-77
2023/12/10 02:15:21;;;;;;;16.10;4.07;;;;;;;7.36;100.00;99724.22;6306264;22;20011;-81
2023/12/10 02:17:48;;;;;;;14.43;5.18;;;;;;;7.45;100.00;99722.91;6278533;22;20006;-79
2023/12/10 02:20:14;;;;;;;15.75;3.42;;;;;;;7.33;100.00;99732.66;6306189;22;20007;-81
2023/12/10 02:22:47;;;;;;;17.50;4.57;;;;;;;7.40;100.00;99730.72;6306120;22;20003;-80
2023/12/10 02:25:14;;;;;;;16.08;4.43;;;;;;;7.46;100.00;99729.84;6278438;22;20007;-79
2023/12/10 02:27:41;;;;;;;19.38;4.15;;;;;;;7.37;100.00;99747.13;6306022;22;20014;-80
2023/12/10 02:30:07;;;;;;;14.80;4.03;;;;;;;7.44;100.00;99736.41;6306048;22;20342;-78
2023/12/10 02:32:32;;;;;;;17.23;4.65;;;;;;;7.38;100.00;99718.69;6305920;22;20007;-77
2023/12/10 02:34:58;;;;;;;17.55;4.45;;;;;;;7.36;100.00;99718.09;6278433;22;20010;-78
2023/12/10 02:37:23;;;;;;;13.68;3.65;;;;;;;7.34;100.00;99741.44;6305695;22;20003;-78
2023/12/10 02:39:48;;;;;;;25.92;4.15;;;;;;;7.43;100.00;99748.09;6305834;22;20396;-78
2023/12/10 02:42:13;;;;;;;14.27;3.78;;;;;;;7.43;100.00;99746.25;6278466;22;20030;-78
2023/12/10 02:44:39;;;;;;;11.20;3.58;;;;;;;7.47;100.00;99735.97;6278246;22;20007;-78
2023/12/10 02:47:04;;;;;;;12.15;4.38;;;;;;;7.49;100.00;99733.09;6278244;22;20011;-77
2023/12/10 02:49:29;;;;;;;15.75;4.20;;;;;;;7.46;100.00;99739.66;6305705;22;20107;-79
2023/12/10 02:51:55;;;;;;;16.23;4.32;;;;;;;7.53;100.00;99713.03;6305736;22;20073;-76
2023/12/10 02:54:20;;;;;;;15.70;5.10;;;;;;;7.76;100.00;99747.72;6305816;22;20065;-77
2023/12/10 02:56:46;;;;;;;14.93;4.63;;;;;;;7.70;100.00;99770.72;6278316;22;20038;-76
2023/12/10 02:59:11;;;;;;;18.60;5.22;;;;;;;7.70;100.00;99751.28;6278422;22;20057;-76
2023/12/10 03:01:36;;;;;;;12.02;3.88;;;;;;;7.70;100.00;99767.25;6305725;22;20007;-76
2023/12/10 03:04:03;;;;;;;20.48;5.07;;;;;;;7.80;100.00;99758.72;6278660;22;20082;-77
2023/12/10 03:06:28;;;;;;;23.42;5.13;;;;;;;7.84;100.00;99778.56;6278192;22;20011;-76
2023/12/10 03:08:54;;;;;;;21.80;4.40;;;;;;;7.88;100.00;99769.09;6305560;22;20000;-76
2023/12/10 03:11:19;;;;;;;17.25;3.95;;;;;;;7.69;100.00;99771.75;6278354;22;20015;-77
2023/12/10 03:13:44;;;;;;;14.80;4.03;;;;;;;7.67;100.00;99781.00;6305753;22;20008;-76
2023/12/10 03:16:10;;;;;;;17.25;4.28;;;;;;;7.67;100.00;99773.00;6305662;22;20011;-77
2023/12/10 03:18:35;;;;;;;13.07;4.28;;;;;;;7.80;100.00;99801.31;6305462;22;20003;-79
2023/12/10 03:21:00;;;;;;;18.52;4.53;;;;;;;7.86;100.00;99787.13;6305659;22;20007;-77
2023/12/10 03:23:26;;;;;;;14.80;4.60;;;;;;;7.80;100.00;99793.31;6305688;22;20030;-78
2023/12/10 03:25:51;;;;;;;16.67;5.00;;;;;;;7.75;100.00;99797.47;6305685;22;20010;-78
2023/12/10 03:28:16;;;;;;;13.07;4.07;;;;;;;7.88;100.00;99769.09;6305703;22;20010;-78
2023/12/10 03:30:42;;;;;;;15.93;4.20;;;;;;;7.96;100.00;99766.94;6305594;22;20087;-76
2023/12/10 03:33:07;;;;;;;12.98;3.58;;;;;;;7.91;100.00;99801.41;6305669;22;20007;-76
2023/12/10 03:35:32;;;;;;;14.27;4.15;;;;;;;8.02;100.00;99826.44;6305668;22;20328;-77
2023/12/10 03:37:58;;;;;;;14.68;4.07;;;;;;;7.96;100.00;99803.41;6305602;22;20018;-76
2023/12/10 03:40:23;;;;;;;14.88;3.72;;;;;;;7.95;100.00;99793.78;6305676;22;20003;-77
2023/12/10 03:42:48;;;;;;;19.95;5.25;;;;;;;7.93;100.00;99812.63;6305638;22;20007;-79
2023/12/10 03:45:14;;;;;;;20.25;4.80;;;;;;;8.03;100.00;99810.25;6278132;22;20060;-76
2023/12/10 03:47:46;;;;;;;13.60;4.10;;;;;;;8.02;100.00;99826.44;6305570;22;20060;-77
2023/12/10 03:50:13;;;;;;;15.80;5.65;;;;;;;7.96;100.00;99800.72;6305784;22;20003;-79
2023/12/10 03:52:39;;;;;;;14.98;4.28;;;;;;;8.01;100.00;99838.94;6305724;22;20424;-77
2023/12/10 03:55:05;;;;;;;16.10;4.47;;;;;;;8.09;100.00;99819.19;6305673;22;20054;-77
2023/12/10 03:57:30;;;;;;;15.10;4.68;;;;;;;8.15;100.00;99825.50;6304001;22;20340;-76
2023/12/10 03:59:56;;;;;;;16.17;4.43;;;;;;;8.18;100.00;99807.22;6278166;22;20006;-75
2023/12/10 04:02:21;;;;;;;13.02;3.78;;;;;;;8.14;100.00;99823.88;6278035;22;20007;-76
2023/12/10 04:04:46;;;;;;;11.40;4.40;;;;;;;8.24;100.00;99840.94;6305354;22;20309;-76
2023/12/10 04:07:12;;;;;;;14.30;3.53;;;;;;;8.18;100.00;99847.16;6278088;22;20323;-75
2023/12/10 04:09:37;;;;;;;18.23;5.07;;;;;;;8.22;100.00;99842.22;6305488;22;19999;-76
2023/12/10 04:12:05;;;;;;;18.35;4.40;;;;;;;8.19;100.00;99850.66;6277890;22;20083;-77
2023/12/10 04:14:30;;;;;;;15.07;4.57;;;;;;;8.24;100.00;99824.97;6305466;22;20003;-76
2023/12/10 04:16:55;;;;;;;19.90;4.72;;;;;;;8.16;100.00;99848.44;6278031;22;20007;-77
2023/12/10 04:19:21;;;;;;;10.30;3.13;;;;;;;8.24;100.00;99853.44;6305360;22;20003;-76
2023/12/10 04:21:46;;;;;;;13.18;3.80;;;;;;;8.27;100.00;99842.34;6305385;22;20007;-76
2023/12/10 04:24:11;;;;;;;12.23;4.43;;;;;;;8.17;100.00;99872.16;6305347;22;20007;-76
2023/12/10 04:26:37;;;;;;;15.40;3.72;;;;;;;8.16;100.00;99833.25;6305227;22;20010;-78
2023/12/10 04:29:02;;;;;;;22.95;5.68;;;;;;;8.23;100.00;99857.97;6305440;22;20006;-77
2023/12/10 04:31:28;;;;;;;17.42;4.13;;;;;;;8.15;100.00;99844.97;6305353;22;20082;-78
2023/12/10 04:33:53;;;;;;;13.48;4.63;;;;;;;8.30;100.00;99890.66;6305314;22;20313;-77
2023/12/10 04:36:19;;;;;;;12.77;4.00;;;;;;;8.33;100.00;99890.22;6305411;22;20003;-77
2023/12/10 04:38:45;;;;;;;12.15;4.00;;;;;;;8.26;100.00;99878.00;6305535;22;20011;-77
2023/12/10 04:41:10;;;;;;;14.90;4.85;;;;;;;8.35;100.00;99877.50;6305349;22;20011;-76
2023/12/10 04:43:36;;;;;;;12.15;3.47;;;;;;;8.41;100.00;99891.00;6305217;22;19999;-76
2023/12/10 04:46:01;;;;;;;17.88;4.63;;;;;;;8.34;100.00;99912.34;6305212;22;20383;-76
2023/12/10 04:48:26;;;;;;;20.00;4.32;;;;;;;8.30;100.00;99906.63;6305148;22;20003;-76
2023/12/10 04:50:52;;;;;;;14.68;3.78;;;;;;;8.25;100.00;99903.00;6305060;22;20090;-76
2023/12/10 04:53:17;;;;;;;13.35;4.30;;;;;;;8.34;100.00;99913.16;6305291;22;20004;-77
2023/12/10 04:55:43;;;;;;;17.10;4.05;;;;;;;8.40;100.00;99897.34;6277924;22;20491;-77
2023/12/10 04:58:08;;;;;;;15.02;4.28;;;;;;;8.40;100.00;99934.66;6277792;22;20156;-76
2023/12/10 05:00:33;;;;;;;15.18;4.45;;;;;;;8.29;100.00;99926.31;6304991;22;20068;-78
2023/12/10 05:02:59;;;;;;;15.70;4.35;;;;;;;8.29;100.00;99934.28;6305158;22;19999;-76
2023/12/10 05:05:24;;;;;;;17.98;4.03;;;;;;;8.28;100.00;99931.84;6277482;22;20404;-77
2023/12/10 05:07:50;;;;;;;18.40;4.05;;;;;;;8.39;100.00;99952.47;6304790;22;20021;-76
2023/12/10 05:10:15;;;;;;;18.15;5.07;;;;;;;8.40;100.00;99958.63;6277761;22;20043;-75
2023/12/10 05:12:40;;;;;;;13.45;5.30;;;;;;;8.42;100.00;99948.56;6277479;22;19999;-76
2023/12/10 05:15:06;;;;;;;20.60;4.53;;;;;;;8.48;100.00;99963.66;6277613;22;20566;-76
2023/12/10 05:17:32;;;;;;;20.23;5.72;;;;;;;8.46;100.00;99952.41;6277556;22;20007;-76
2023/12/10 05:19:58;;;;;;;18.20;4.40;;;;;;;8.48;100.00;99934.34;6304831;22;20341;-76
2023/12/10 05:22:23;;;;;;;18.20;4.65;;;;;;;8.56;100.00;99979.31;6277393;22;20010;-75
2023/12/10 05:24:49;;;;;;;20.40;4.18;;;;;;;8.45;100.00;99980.06;6304703;22;20310;-77
2023/12/10 05:27:15;;;;;;;12.57;3.78;;;;;;;8.37;100.00;99979.31;6277399;22;20031;-76
2023/12/10 05:29:40;;;;;;;18.98;3.92;;;;;;;8.44;100.00;99968.59;6304882;22;20003;-75
2023/12/10 05:32:06;;;;;;;17.05;3.97;;;;;;;8.41;100.00;99981.56;6277413;22;20003;-75
2023/12/10 05:34:31;;;;;;;14.20;3.63;;;;;;;8.35;100.00;99967.25;6305914;22;20007;-76
2023/12/10 05:36:57;;;;;;;16.73;4.03;;;;;;;8.43;100.00;99990.97;6306149;22;20082;-76
2023/12/10 05:39:23;;;;;;;16.70;3.83;;;;;;;8.37;100.00;100000.63;6278832;22;20027;-76
2023/12/10 05:41:48;;;;;;;12.45;4.47;;;;;;;8.48;100.00;99992.94;6306252;22;20420;-75
2023/12/10 05:44:13;;;;;;;17.40;4.45;;;;;;;8.55;100.00;99983.03;6306021;22;20026;-75
2023/12/10 05:46:39;;;;;;;22.65;5.15;;;;;;;8.48;100.00;99999.09;6306109;22;20007;-75
2023/12/10 05:49:04;;;;;;;21.17;4.68;;;;;;;8.51;100.00;99996.00;6278616;22;20007;-75
2023/12/10 05:51:29;;;;;;;21.58;3.85;;;;;;;8.49;100.00;100024.69;6306000;22;20011;-75
2023/12/10 05:53:56;;;;;;;16.08;4.10;;;;;;;8.36;100.00;100024.81;6278752;22;20007;-75
2023/12/10 05:56:21;;;;;;;18.30;4.60;;;;;;;8.27;100.00;100023.44;6306066;22;20038;-74
2023/12/10 05:58:47;;;;;;;12.27;3.45;;;;;;;8.36;100.00;100046.94;6306067;22;20003;-74
2023/12/10 06:01:12;;;;;;;16.92;3.42;;;;;;;8.34;100.00;100029.53;6278776;22;20003;-76
2023/12/10 06:03:38;;;;;;;22.60;5.07;;;;;;;8.43;100.00;100036.25;6306050;22;20078;-76
2023/12/10 06:06:03;;;;;;;15.73;4.47;;;;;;;8.46;100.00;100050.97;6278699;22;20301;-74
2023/12/10 06:08:28;;;;;;;17.83;3.92;;;;;;;8.35;100.00;100047.97;6278476;22;20007;-76
2023/12/10 06:10:54;;;;;;;14.13;4.40;;;;;;;8.45;100.00;100052.00;6278846;22;20010;-75
2023/12/10 06:13:20;;;;;;;10.68;4.03;;;;;;;8.44;100.00;100055.72;6278538;22;20066;-76
2023/12/10 06:15:45;;;;;;;18.33;3.92;;;;;;;8.31;100.00;100068.06;6306176;22;20011;-74
2023/12/10 06:18:10;;;;;;;13.13;3.90;;;;;;;8.31;100.00;100088.56;6305812;22;20042;-75
2023/12/10 06:20:36;;;;;;;17.63;4.82;;;;;;;8.44;100.00;100072.50;6306055;22;20378;-75
2023/12/10 06:23:02;;;;;;;16.38;4.05;;;;;;;8.43;100.00;100084.19;6305929;22;20443;-76
2023/12/10 06:25:28;;;;;;;18.85;4.53;;;;;;;8.48;100.00;100065.69;6278453;22;20007;-76
2023/12/10 06:27:54;;;;;;;12.55;4.00;;;;;;;8.43;100.00;100096.69;6278448;22;20011;-75
2023/12/10 06:30:20;;;;;;;16.95;4.95;;;;;;;8.45;100.00;100083.97;6306320;22;20093;-76
2023/12/10 06:32:45;;;;;;;16.35;4.43;;;;;;;8.36;100.00;100120.72;6278369;22;20428;-74
2023/12/10 06:35:11;;;;;;;19.45;5.38;;;;;;;8.34;100.00;100104.94;6306074;22;20089;-76
2023/12/10 06:37:37;;;;;;;18.52;5.53;;;;;;;8.33;100.00;100134.44;6278596;22;20030;-75
2023/12/10 06:40:04;;;;;;;17.33;3.92;;;;;;;8.38;100.00;100119.47;6306022;22;20007;-76
2023/12/10 06:42:29;;;;;;;13.65;4.03;;;;;;;8.33;100.00;100142.41;6278720;22;20034;-76
2023/12/10 06:44:54;;;;;;;13.38;4.03;;;;;;;8.38;100.00;100145.28;6305039;22;20007;-76
2023/12/10 06:47:20;;;;;;;14.65;3.75;;;;;;;8.24;100.00;100136.56;6305805;22;20007;-75
2023/12/10 06:49:45;;;;;;;20.15;4.35;;;;;;;8.32;100.00;100157.59;6305607;22;20007;-75
2023/12/10 06:52:10;;;;;;;15.40;4.10;;;;;;;8.37;100.00;100160.44;6305935;22;20011;-76
2023/12/10 06:54:36;;;;;;;16.52;5.13;;;;;;;8.36;100.00;100164.13;6278259;22;20038;-75
2023/12/10 06:57:01;;;;;;;20.42;4.78;;;;;;;8.32;100.00;100168.25;6305771;22;20011;-75
2023/12/10 06:59:26;;;;;;;17.05;5.22;;;;;;;8.35;100.00;100143.88;6305766;22;20014;-75
2023/12/10 07:01:52;;;;;;;10.38;3.45;;;;;;;8.50;100.00;100158.72;6278237;22;20003;-75
2023/12/10 07:04:17;;;;;;;15.50;4.53;;;;;;;8.48;100.00;100153.63;6278365;22;20003;-76
2023/12/10 07:06:42;;;;;;;17.40;4.00;;;;;;;8.38;100.00;100148.78;6278348;22;20009;-75
2023/12/10 07:09:08;;;;;;;18.42;4.63;;;;;;;8.41;100.00;100192.81;6278559;22;20417;-74
2023/12/10 07:11:34;;;;;;;17.52;4.20;;;;;;;8.41;100.00;100184.00;6305897;22;20010;-75
2023/12/10 07:13:59;;;;;;;18.83;4.63;;;;;;;8.33;100.00;100175.22;6305773;22;20003;-76
2023/12/10 07:16:25;;;;;;;13.30;3.58;;;;;;;8.35;100.00;100175.00;6305828;22;20034;-75
2023/12/10 07:18:51;;;;;;;13.48;3.80;;;;;;;8.32;100.00;100178.91;6305624;22;20341;-75
2023/12/10 07:21:16;;;;;;;19.35;4.53;;;;;;;8.36;100.00;100188.13;6278477;22;20003;-75
2023/12/10 07:23:42;;;;;;;13.52;3.50;;;;;;;8.40;100.00;100220.50;6278290;22;20446;-76
2023/12/10 07:26:07;;;;;;;11.35;4.07;;;;;;;8.48;100.00;100206.09;6278609;22;20129;-77
2023/12/10 07:28:33;;;;;;;13.85;4.00;;;;;;;8.38;100.00;100225.19;6305728;22;20029;-75
2023/12/10 07:30:58;;;;;;;18.85;4.38;;;;;;;8.37;100.00;100191.59;6305878;22;20027;-75
2023/12/10 07:33:23;;;;;;;16.02;3.63;;;;;;;8.31;100.00;100227.88;6278288;22;19999;-74
2023/12/10 07:35:49;;;;;;;14.70;3.35;;;;;;;8.33;100.00;100246.31;6305728;22;20008;-75
2023/12/10 07:38:14;;;;;;;15.90;4.00;;;;;;;8.32;100.00;100258.00;6305570;22;20328;-75
2023/12/10 07:40:40;;;;;;;13.85;3.83;;;;;;;8.33;100.00;100254.28;6305666;22;20011;-74
2023/12/10 07:43:06;;;;;;;16.75;4.38;;;;;;;8.41;100.00;100242.63;6278289;22;20328;-75
2023/12/10 07:45:32;;;;;;;18.65;4.05;;;;;;;8.42;100.00;100249.59;6305471;22;20007;-75
2023/12/10 07:47:57;;;;;;;18.30;3.78;;;;;;;8.41;100.00;100272.75;6305433;22;20003;-75
2023/12/10 07:50:22;;;;;;;17.27;4.32;;;;;;;8.38;100.00;100276.66;6305461;22;20013;-76
2023/12/10 07:52:48;;;;;;;25.35;4.32;;;;;;;8.27;100.00;100282.59;6305337;22;20003;-74
2023/12/10 07:55:13;;;;;;;19.92;4.32;;;;;;;8.28;100.00;100294.06;6277902;22;20042;-75
2023/12/10 07:57:38;;;;;;;12.85;3.45;;;;;;;8.27;100.00;100295.91;6277583;22;20336;-75
2023/12/10 08:00:07;;;;;;;18.08;4.43;;;;;;;8.30;100.00;100294.69;6278153;22;20007;-76
2023/12/10 08:02:33;;;;;;;15.43;3.58;;;;;;;8.32;100.00;100297.94;6305519;22;20026;-75
2023/12/10 08:04:59;;;;;;;12.63;3.40;;;;;;;8.27;100.00;100306.56;6305401;22;19999;-74
2023/12/10 08:07:24;;;;;;;13.48;3.33;;;;;;;8.27;100.00;100313.75;6305545;22;20007;-75
2023/12/10 08:09:50;;;;;;;17.33;3.63;;;;;;;8.17;100.00;100314.22;6305540;22;20004;-75
2023/12/10 08:12:16;;;;;;;19.25;3.65;;;;;;;8.20;100.00;100316.44;6305325;22;20027;-75
2023/12/10 08:14:41;;;;;;;14.02;4.97;;;;;;;8.18;100.00;100312.38;6305261;22;19999;-76
2023/12/10 08:17:07;;;;;;;12.68;3.42;;;;;;;8.22;100.00;100314.38;6305413;22;20037;-75
2023/12/10 08:19:32;;;;;;;19.15;4.25;;;;;;;8.25;100.00;100323.78;6305257;22;20056;-75
2023/12/10 08:21:58;;;;;;;19.75;4.88;;;;;;;8.29;100.00;100322.34;6305341;22;20003;-75
2023/12/10 08:24:25;;;;;;;22.38;4.55;;;;;;;8.21;100.00;100325.25;6305166;22;20011;-75
2023/12/10 08:26:51;;;;;;;14.20;4.60;;;;;;;8.25;100.00;100345.09;6277841;22;20065;-75
2023/12/10 08:29:16;;;;;;;15.75;3.45;;;;;;;8.23;100.00;100336.50;6305697;22;20007;-75
2023/12/10 08:31:41;;;;;;;17.70;5.13;;;;;;;8.22;100.00;100354.34;6277907;22;20011;-76
2023/12/10 08:34:07;;;;;;;15.13;4.68;;;;;;;8.26;100.00;100342.22;6305449;22;19999;-75
2023/12/10 08:36:32;;;;;;;17.40;4.60;;;;;;;8.26;100.00;100352.06;6277875;22;20012;-75
2023/12/10 08:38:58;;;;;;;19.33;4.55;;;;;;;8.28;100.00;100358.00;6277915;22;19999;-75
2023/12/10 08:41:23;;;;;;;21.13;4.65;;;;;;;8.28;100.00;100353.50;6305347;22;20081;-77
2023/12/10 08:43:48;;;;;;;18.83;3.80;;;;;;;8.24;100.00;100362.94;6305196;22;20132;-76
2023/12/10 08:46:14;;;;;;;16.02;4.07;;;;;;;8.30;100.00;100375.41;6304990;22;20084;-75
2023/12/10 08:48:42;;;;;;;15.52;4.22;;;;;;;8.26;100.00;100370.72;6277759;22;20018;-78
2023/12/10 08:51:07;;;;;;;17.80;3.97;;;;;;;8.30;100.00;100372.72;6277657;22;20007;-77
2023/12/10 08:53:33;;;;;;;21.85;5.32;;;;;;;8.42;100.00;100372.13;6305263;22;20009;-80
2023/12/10 08:55:58;;;;;;;19.75;5.07;;;;;;;8.67;100.00;100370.34;6305062;22;20433;-79
2023/12/10 08:58:23;;;;;;;16.58;5.93;;;;;;;9.12;100.00;100389.78;6277674;22;20008;-78
2023/12/10 09:00:50;;;;;;;17.33;4.45;;;;;;;9.53;100.00;100359.06;6277556;22;20010;-78
2023/12/10 09:03:15;;;;;;;21.25;4.90;;;;;;;9.63;100.00;100336.22;6277646;22;20004;-79
2023/12/10 09:05:41;;;;;;;22.63;5.47;;;;;;;9.26;100.00;100388.66;6305278;22;20017;-78
2023/12/10 09:08:06;;;;;;;13.98;3.78;;;;;;;9.12;100.00;100384.44;6305437;22;20007;-79
2023/12/10 09:10:32;;;;;;;19.27;4.80;;;;;;;8.87;100.00;100381.72;6278876;22;20054;-79
2023/12/10 09:12:57;;;;;;;18.70;3.78;;;;;;;8.74;100.00;100384.47;6306629;22;20007;-79
2023/12/10 09:15:23;;;;;;;16.48;4.63;;;;;;;8.72;100.00;100383.06;6306594;22;20447;-79
2023/12/10 09:17:48;;;;;;;17.33;3.28;;;;;;;8.58;100.00;100385.78;6306180;22;20010;-77
2023/12/10 09:20:13;;;;;;;19.27;4.43;;;;;;;8.51;100.00;100390.31;6278881;22;20010;-77
2023/12/10 09:22:39;;;;;;;20.05;4.90;;;;;;;8.57;100.00;100399.31;6279026;22;20015;-79
2023/12/10 09:25:04;;;;;;;13.75;3.42;;;;;;;8.42;100.00;100396.09;6278924;22;20425;-79
2023/12/10 09:27:30;;;;;;;13.63;3.85;;;;;;;8.53;100.00;100406.91;6306944;22;20003;-77
2023/12/10 09:29:56;;;;;;;21.15;4.95;;;;;;;8.39;100.00;100410.66;6306252;22;20003;-78
2023/12/10 09:32:23;;;;;;;16.90;4.20;;;;;;;8.34;100.00;100411.28;6306173;22;20348;-77
2023/12/10 09:34:50;;;;;;;18.77;4.68;;;;;;;8.36;100.00;100403.88;6278665;22;20007;-77
2023/12/10 09:37:16;;;;;;;21.75;4.45;;;;;;;8.47;100.00;100406.94;6278839;22;20314;-77
2023/12/10 09:39:42;;;;;;;15.90;3.60;;;;;;;8.50;100.00;100407.34;6278967;22;20511;-78
2023/12/10 09:42:07;;;;;;;18.33;4.57;;;;;;;8.62;100.00;100415.47;6306285;22;20026;-77
2023/12/10 09:44:32;;;;;;;20.58;4.38;;;;;;;8.85;100.00;100399.78;6306373;22;20007;-78
2023/12/10 09:46:59;;;;;;;18.33;4.50;;;;;;;8.91;100.00;100398.09;6306290;22;20039;-78
2023/12/10 09:49:27;;;;;;;18.92;4.15;;;;;;;8.90;100.00;100413.28;6306091;22;20470;-78
2023/12/10 09:51:52;;;;;;;15.93;4.28;;;;;;;8.93;100.00;100404.84;6279065;22;20003;-78
2023/12/10 09:54:20;;;;;;;13.05;3.42;;;;;;;9.37;100.00;100402.34;6306244;22;20336;-77
2023/12/10 09:56:47;;;;;;;11.48;3.38;;;;;;;9.39;100.00;100395.75;6306295;22;20015;-78
2023/12/10 09:59:13;;;;;;;14.20;3.95;;;;;;;9.23;100.00;100397.06;6306362;22;20003;-78
2023/12/10 10:01:38;;;;;;;17.00;4.07;;;;;;;9.11;100.00;100377.47;6278786;22;20010;-78
2023/12/10 10:04:03;;;;;;;16.52;4.75;;;;;;;9.15;100.00;100391.19;6278740;22;20032;-78
2023/12/10 10:06:29;;;;;;;14.85;4.47;;;;;;;9.30;100.00;100403.22;6306025;22;20031;-78
2023/12/10 10:08:54;;;;;;;18.48;4.50;;;;;;;9.22;100.00;100406.13;6306197;22;20034;-78
2023/12/10 10:11:20;;;;;;;22.27;4.13;;;;;;;9.32;100.00;100401.13;6306214;22;20302;-78
2023/12/10 10:13:54;;;;;;;14.85;4.40;;;;;;;9.40;100.00;100417.91;6278428;22;20015;-78
2023/12/10 10:16:23;;;;;;;22.33;4.78;;;;;;;9.37;100.00;100402.34;6305826;22;20003;-78
2023/12/10 10:18:49;;;;;;;22.55;5.28;;;;;;;9.63;100.00;100391.44;6305643;22;20011;-77
2023/12/10 10:21:14;;;;;;;16.88;4.60;;;;;;;9.84;100.00;100384.91;6306005;22;20026;-78
2023/12/10 10:23:41;;;;;;;23.00;4.25;;;;;;;10.19;100.00;100391.31;6278874;22;20015;-79
2023/12/10 10:26:07;;;;;;;18.35;4.72;;;;;;;10.57;100.00;100370.72;6306188;22;20023;-78
2023/12/10 10:28:35;;;;;;;22.98;5.00;;;;;;;10.99;100.00;100385.00;6278744;22;20003;-77
2023/12/10 10:31:01;;;;;;;14.32;4.03;;;;;;;11.51;100.00;100396.72;6305753;22;20007;-77
2023/12/10 10:33:27;;;;;;;19.65;3.88;;;;;;;11.63;100.00;100396.75;6306072;22;19999;-78
2023/12/10 10:35:53;;;;;;;15.20;4.55;;;;;;;11.77;100.00;100398.94;6278564;22;20061;-77
2023/12/10 10:38:20;;;;;;;18.35;4.45;;;;;;;11.21;100.00;100393.28;6278864;22;20010;-78
2023/12/10 10:40:47;;;;;;;18.88;3.92;;;;;;;10.79;100.00;100399.44;6278836;22;20007;-78
2023/12/10 10:43:12;;;;;;;17.05;4.35;;;;;;;10.58;100.00;100386.53;6278855;22;20010;-78
2023/12/10 10:45:38;;;;;;;12.05;3.40;;;;;;;10.41;100.00;100388.22;6278541;22;20003;-75
2023/12/10 10:48:04;;;;;;;19.75;4.25;;;;;;;10.59;100.00;100406.91;6278550;22;20008;-77
2023/12/10 10:50:32;;;;;;;11.55;3.67;;;;;;;11.12;100.00;100401.66;6278611;22;20003;-77
2023/12/10 10:52:59;;;;;;;17.70;3.67;;;;;;;11.44;100.00;100398.69;6306070;22;20003;-78
2023/12/10 10:55:25;;;;;;;12.57;3.15;;;;;;;11.46;100.00;100415.34;6306234;22;20040;-78
2023/12/10 10:57:50;;;;;;;19.98;4.13;;;;;;;11.41;100.00;100393.81;6278747;22;20090;-78
2023/12/10 11:00:20;;;;;;;20.35;4.03;;;;;;;11.58;100.00;100410.84;6278470;22;20007;-77
2023/12/10 11:02:47;;;;;;;18.15;4.55;;;;;;;11.46;100.00;100399.28;6306003;22;20482;-78
2023/12/10 11:05:14;;;;;;;18.30;4.07;;;;;;;11.16;100.00;100407.34;6305938;22;20428;-78
2023/12/10 11:07:42;;;;;;;17.73;4.38;;;;;;;10.93;100.00;100401.91;6306183;22;20003;-77
2023/12/10 11:10:08;;;;;;;20.20;5.88;;;;;;;10.88;100.00;100385.75;6306207;22;20031;-78
2023/12/10 11:12:44;;;;;;;24.40;4.20;;;;;;;10.80;100.00;100400.25;6279104;22;20428;-78
2023/12/10 11:15:12;;;;;;;21.38;4.70;;;;;;;10.84;100.00;100396.91;6306149;22;20003;-76